createdAt,value
2023-04-29T00:01:32.562Z,93.77
2023-04-29T00:04:00.777Z,93.04
2023-04-29T00:06:29.415Z,91.79
2023-04-29T00:08:57.467Z,92.06
2023-04-29T00:11:25.502Z,93.34
2023-04-29T00:13:54.817Z,92.13
2023-04-29T00:16:23.065Z,91.76
2023-04-29T00:18:51.145Z,94.34
2023-04-29T00:21:19.113Z,95.28
2023-04-29T00:23:47.030Z,97.76
2023-04-29T00:26:15.229Z,96.48
2023-04-29T00:28:43.145Z,96.54
2023-04-29T00:31:13.229Z,96.19
2023-04-29T00:33:41.205Z,96.90
2023-04-29T00:36:09.559Z,96.67
2023-04-29T00:38:37.801Z,96.80
2023-04-29T00:41:05.980Z,96.21
2023-04-29T00:43:33.890Z,98.41
2023-04-29T00:46:01.949Z,96.80
2023-04-29T00:48:31.310Z,94.75
2023-04-29T00:50:59.235Z,94.02
2023-04-29T00:53:27.306Z,95.54
2023-04-29T00:55:56.330Z,96.69
2023-04-29T00:58:30.324Z,96.54
2023-04-29T01:00:58.582Z,98.20
2023-04-29T01:03:26.650Z,97.62
2023-04-29T01:06:06.338Z,97.25
2023-04-29T01:08:43.374Z,96.75
2023-04-29T01:11:12.883Z,97.33
2023-04-29T01:13:47.307Z,96.79
2023-04-29T01:16:22.735Z,96.36
2023-04-29T01:18:55.784Z,97.04
2023-04-29T01:21:26.465Z,97.92
2023-04-29T01:23:57.262Z,98.45
2023-04-29T01:26:25.904Z,97.45
2023-04-29T01:29:00.806Z,97.57
2023-04-29T01:31:33.715Z,96.80
2023-04-29T01:34:13.143Z,97.35
2023-04-29T01:36:52.550Z,97.50
2023-04-29T01:39:32.325Z,99.09
2023-04-29T01:42:12.618Z,100.00
2023-04-29T01:44:43.779Z,100.00
2023-04-29T01:47:15.361Z,100.00
2023-04-29T01:49:43.314Z,98.41
2023-04-29T01:52:11.257Z,97.63
2023-04-29T01:54:40.671Z,96.27
2023-04-29T01:57:08.587Z,95.45
2023-04-29T01:59:36.724Z,95.55
2023-04-29T02:02:04.670Z,96.51
2023-04-29T02:04:34.534Z,96.90
2023-04-29T02:07:04.089Z,96.44
2023-04-29T02:09:32.056Z,95.01
2023-04-29T02:12:01.344Z,95.93
2023-04-29T02:14:29.267Z,95.90
2023-04-29T02:16:57.220Z,96.99
2023-04-29T02:19:25.142Z,98.62
2023-04-29T02:21:53.087Z,100.00
2023-04-29T02:24:21.190Z,100.00
2023-04-29T02:26:49.145Z,100.00
2023-04-29T02:29:18.596Z,99.59
2023-04-29T02:31:46.639Z,100.00
2023-04-29T02:34:14.641Z,100.00
2023-04-29T02:36:42.588Z,99.18
2023-04-29T02:39:10.512Z,100.00
2023-04-29T02:41:38.524Z,99.67
2023-04-29T02:44:06.442Z,98.26
2023-04-29T02:46:36.489Z,97.79
2023-04-29T02:49:05.177Z,100.00
2023-04-29T02:51:33.545Z,100.00
2023-04-29T02:54:01.453Z,99.58
2023-04-29T02:56:29.483Z,97.42
2023-04-29T02:58:57.518Z,96.31
2023-04-29T03:01:25.586Z,96.02
2023-04-29T03:03:55.269Z,95.23
2023-04-29T03:06:23.518Z,95.58
2023-04-29T03:08:52.660Z,95.37
2023-04-29T03:11:21.283Z,96.33
2023-04-29T03:13:49.185Z,96.95
2023-04-29T03:16:17.263Z,96.05
2023-04-29T03:18:45.466Z,97.13
2023-04-29T03:21:15.221Z,95.55
2023-04-29T03:23:43.166Z,96.07
2023-04-29T03:26:11.625Z,96.06
2023-04-29T03:28:39.619Z,96.38
2023-04-29T03:31:07.589Z,96.20
2023-04-29T03:33:35.570Z,94.94
2023-04-29T03:36:04.369Z,96.30
2023-04-29T03:38:33.684Z,95.67
2023-04-29T03:41:01.909Z,95.22
2023-04-29T03:43:29.940Z,94.21
2023-04-29T03:45:57.862Z,94.15
2023-04-29T03:48:25.814Z,95.65
2023-04-29T03:50:53.845Z,93.71
2023-04-29T03:53:22.016Z,92.42
2023-04-29T03:55:51.451Z,94.18
2023-04-29T03:58:19.460Z,93.49
2023-04-29T04:00:47.446Z,91.28
2023-04-29T04:03:15.610Z,89.99
2023-04-29T04:05:43.654Z,90.45
2023-04-29T04:08:11.812Z,89.67
2023-04-29T04:10:39.765Z,88.90
2023-04-29T04:13:09.078Z,88.36
2023-04-29T04:15:37.133Z,88.70
2023-04-29T04:18:05.454Z,86.85
2023-04-29T04:20:33.463Z,85.44
2023-04-29T04:23:01.384Z,85.40
2023-04-29T04:25:30.302Z,85.32
2023-04-29T04:27:58.231Z,83.07
2023-04-29T04:30:27.541Z,82.41
2023-04-29T04:32:55.492Z,79.41
2023-04-29T04:35:23.427Z,78.86
2023-04-29T04:37:51.563Z,77.39
2023-04-29T04:40:19.546Z,76.55
2023-04-29T04:42:47.455Z,74.79
2023-04-29T04:45:15.410Z,75.20
2023-04-29T04:47:44.733Z,72.68
2023-04-29T04:50:12.651Z,72.62
2023-04-29T04:52:40.591Z,72.16
2023-04-29T04:55:09.695Z,71.25
2023-04-29T04:57:37.681Z,69.28
2023-04-29T05:00:07.074Z,65.83
2023-04-29T05:02:35.117Z,62.69
2023-04-29T05:05:04.746Z,63.13
2023-04-29T05:07:33.140Z,62.47
2023-04-29T05:10:01.072Z,61.24
2023-04-29T05:12:30.942Z,57.27
2023-04-29T05:14:59.489Z,57.38
2023-04-29T05:17:27.470Z,54.92
2023-04-29T05:19:55.481Z,58.70
2023-04-29T05:22:25.023Z,53.62
2023-04-29T05:24:54.335Z,55.75
2023-04-29T05:27:22.258Z,55.44
2023-04-29T05:29:50.280Z,54.88
2023-04-29T05:32:18.335Z,52.35
2023-04-29T05:34:46.602Z,53.09
2023-04-29T05:37:14.572Z,55.20
2023-04-29T05:39:43.958Z,53.79
2023-04-29T05:42:11.876Z,52.50
2023-04-29T05:44:41.109Z,52.02
2023-04-29T05:47:09.027Z,52.16
2023-04-29T05:49:36.944Z,51.14
2023-04-29T05:52:06.662Z,50.02
2023-04-29T05:54:34.918Z,47.90
2023-04-29T05:57:04.478Z,47.48
2023-04-29T05:59:32.854Z,47.30
2023-04-29T06:02:01.496Z,48.65
2023-04-29T06:04:30.113Z,49.28
2023-04-29T06:06:58.759Z,48.69
2023-04-29T06:09:28.183Z,49.87
2023-04-29T06:11:56.489Z,49.09
2023-04-29T06:14:25.995Z,47.92
2023-04-29T06:16:54.066Z,50.15
2023-04-29T06:19:21.998Z,48.90
2023-04-29T06:21:49.905Z,47.33
2023-04-29T06:24:17.849Z,47.84
2023-04-29T06:26:45.848Z,46.54
2023-04-29T06:29:13.786Z,46.85
2023-04-29T06:31:43.221Z,45.20
2023-04-29T06:34:11.471Z,47.58
2023-04-29T06:36:39.480Z,47.80
2023-04-29T06:39:07.463Z,45.61
2023-04-29T06:41:36.881Z,44.98
2023-04-29T06:44:04.919Z,47.82
2023-04-29T06:46:33.020Z,42.50
2023-04-29T06:49:02.474Z,44.94
2023-04-29T06:51:32.189Z,44.17
2023-04-29T06:54:00.187Z,44.54
2023-04-29T06:56:30.286Z,44.07
2023-04-29T06:58:58.394Z,44.98
2023-04-29T07:01:26.357Z,42.59
2023-04-29T07:03:54.498Z,43.73
2023-04-29T07:06:24.033Z,42.32
2023-04-29T07:08:53.711Z,41.74
2023-04-29T07:11:24.774Z,41.48
2023-04-29T07:13:54.437Z,39.19
2023-04-29T07:16:26.583Z,41.87
2023-04-29T07:18:54.991Z,42.29
2023-04-29T07:21:24.362Z,40.96
2023-04-29T07:23:52.336Z,43.70
2023-04-29T07:26:20.257Z,40.78
2023-04-29T07:28:49.751Z,41.91
2023-04-29T07:31:17.921Z,40.18
2023-04-29T07:33:47.438Z,43.43
2023-04-29T07:36:15.464Z,39.19
2023-04-29T07:38:44.765Z,40.36
2023-04-29T07:41:12.699Z,40.75
2023-04-29T07:43:42.363Z,39.72
2023-04-29T07:46:10.699Z,38.08
2023-04-29T07:48:40.189Z,39.26
2023-04-29T07:51:08.956Z,42.55
2023-04-29T07:53:36.898Z,40.74
2023-04-29T07:56:08.697Z,39.24
2023-04-29T07:58:36.959Z,39.06
2023-04-29T08:01:08.730Z,39.57
2023-04-29T08:03:39.856Z,40.97
2023-04-29T08:06:09.158Z,37.76
2023-04-29T08:08:37.581Z,39.11
2023-04-29T08:11:07.539Z,40.18
2023-04-29T08:13:35.466Z,41.01
2023-04-29T08:16:03.441Z,38.84
2023-04-29T08:18:31.390Z,37.54
2023-04-29T08:20:59.333Z,36.44
2023-04-29T08:23:27.528Z,37.86
2023-04-29T08:25:56.080Z,41.79
2023-04-29T08:28:25.528Z,40.19
2023-04-29T08:30:53.499Z,40.50
2023-04-29T08:33:21.408Z,38.05
2023-04-29T08:35:49.669Z,39.85
2023-04-29T08:38:17.597Z,36.15
2023-04-29T08:40:47.256Z,37.54
2023-04-29T08:43:15.973Z,40.28
2023-04-29T08:45:45.478Z,39.63
2023-04-29T08:48:14.666Z,39.85
2023-04-29T08:50:43.625Z,38.21
2023-04-29T08:53:13.953Z,38.99
2023-04-29T08:55:43.906Z,40.87
2023-04-29T08:58:13.435Z,40.77
2023-04-29T09:00:43.265Z,39.09
2023-04-29T09:03:21.116Z,40.73
2023-04-29T09:05:51.487Z,39.25
2023-04-29T09:08:21.232Z,38.99
2023-04-29T09:10:49.517Z,37.55
2023-04-29T09:13:35.100Z,36.86
2023-04-29T09:16:03.062Z,35.93
2023-04-29T09:18:46.105Z,38.19
2023-04-29T09:21:15.764Z,38.04
2023-04-29T09:23:43.808Z,36.59
2023-04-29T09:26:11.750Z,37.36
2023-04-29T09:28:41.167Z,36.45
2023-04-29T09:31:09.154Z,36.61
2023-04-29T09:33:54.596Z,37.18
2023-04-29T09:36:39.622Z,38.09
2023-04-29T09:39:11.886Z,35.88
2023-04-29T09:41:41.811Z,37.05
2023-04-29T09:44:11.314Z,38.55
2023-04-29T09:46:39.360Z,37.13
2023-04-29T09:49:25.069Z,35.66
2023-04-29T09:51:58.042Z,40.84
2023-04-29T09:54:28.555Z,36.86
2023-04-29T09:56:57.668Z,34.50
2023-04-29T09:59:26.477Z,39.30
2023-04-29T10:01:55.543Z,38.16
2023-04-29T10:04:26.384Z,36.76
2023-04-29T10:06:55.455Z,34.20
2023-04-29T10:09:24.895Z,36.01
2023-04-29T10:11:54.678Z,36.27
2023-04-29T10:14:24.892Z,35.54
2023-04-29T10:17:04.835Z,36.77
2023-04-29T10:19:39.928Z,38.08
2023-04-29T10:22:10.515Z,34.49
2023-04-29T10:24:40.161Z,37.35
2023-04-29T10:27:09.076Z,36.79
2023-04-29T10:29:38.817Z,36.32
2023-04-29T10:32:10.812Z,35.38
2023-04-29T10:34:40.770Z,33.26
2023-04-29T10:37:11.072Z,35.28
2023-04-29T10:39:45.307Z,34.42
2023-04-29T10:42:21.414Z,33.44
2023-04-29T10:45:23.349Z,33.37
2023-04-29T10:48:11.914Z,33.50
2023-04-29T10:51:05.097Z,35.44
2023-04-29T10:53:33.030Z,36.75
2023-04-29T10:56:06.647Z,34.03
2023-04-29T10:58:43.635Z,32.50
2023-04-29T11:01:13.091Z,32.48
2023-04-29T11:03:55.540Z,35.11
2023-04-29T11:06:27.464Z,34.94
2023-04-29T11:09:03.428Z,31.68
2023-04-29T11:11:50.193Z,37.67
2023-04-29T11:14:24.947Z,35.36
2023-04-29T11:16:54.664Z,36.14
2023-04-29T11:19:25.722Z,35.04
2023-04-29T11:22:13.023Z,34.95
2023-04-29T11:24:52.124Z,35.03
2023-04-29T11:27:23.009Z,36.71
2023-04-29T11:29:51.676Z,35.71
2023-04-29T11:32:22.715Z,37.30
2023-04-29T11:34:50.891Z,37.41
2023-04-29T11:37:24.428Z,38.26
2023-04-29T11:39:52.636Z,37.10
2023-04-29T11:42:23.867Z,36.85
2023-04-29T11:44:57.032Z,37.58
2023-04-29T11:47:28.712Z,38.52
2023-04-29T11:50:03.845Z,36.05
2023-04-29T11:52:34.175Z,36.01
2023-04-29T11:55:02.186Z,36.32
2023-04-29T11:57:30.230Z,34.98
2023-04-29T11:59:58.897Z,34.41
2023-04-29T12:02:32.304Z,34.97
2023-04-29T12:05:01.539Z,37.09
2023-04-29T12:07:30.226Z,37.09
2023-04-29T12:10:00.454Z,37.29
2023-04-29T12:12:29.288Z,39.61
2023-04-29T12:14:57.441Z,37.64
2023-04-29T12:17:25.809Z,35.36
2023-04-29T12:19:53.856Z,35.37
2023-04-29T12:22:21.863Z,38.36
2023-04-29T12:24:50.958Z,37.63
2023-04-29T12:27:20.265Z,39.48
2023-04-29T12:29:48.273Z,33.57
2023-04-29T12:32:18.836Z,35.62
2023-04-29T12:34:47.469Z,34.89
2023-04-29T12:37:16.665Z,40.76
2023-04-29T12:39:44.830Z,35.24
2023-04-29T12:42:17.353Z,35.02
2023-04-29T12:44:48.325Z,35.33
2023-04-29T12:47:17.606Z,36.30
2023-04-29T12:49:46.701Z,38.59
2023-04-29T12:52:14.759Z,37.74
2023-04-29T12:54:43.983Z,35.54
2023-04-29T12:57:12.612Z,36.88
2023-04-29T12:59:41.346Z,36.50
2023-04-29T13:02:11.094Z,38.81
2023-04-29T13:04:40.079Z,38.24
2023-04-29T13:07:08.308Z,37.77
2023-04-29T13:09:38.189Z,37.79
2023-04-29T13:12:09.616Z,39.79
2023-04-29T13:14:37.714Z,37.42
2023-04-29T13:17:06.479Z,37.17
2023-04-29T13:19:50.199Z,33.62
2023-04-29T13:22:19.516Z,34.31
2023-04-29T13:24:47.605Z,35.71
2023-04-29T13:27:15.643Z,34.26
2023-04-29T13:29:43.542Z,36.95
2023-04-29T13:32:11.654Z,37.29
2023-04-29T13:34:43.408Z,36.04
2023-04-29T13:37:11.534Z,35.48
2023-04-29T13:39:39.728Z,35.85
2023-04-29T13:42:08.986Z,36.26
2023-04-29T13:44:49.847Z,38.73
2023-04-29T13:47:25.718Z,37.22
2023-04-29T13:53:18.556Z,37.37
2023-04-29T13:56:11.463Z,37.42
2023-04-29T14:01:04.604Z,39.41
2023-04-29T14:03:21.486Z,38.13
2023-04-29T14:05:51.456Z,39.01
2023-04-29T14:08:19.475Z,40.04
2023-04-29T14:10:48.012Z,37.08
2023-04-29T14:13:15.992Z,37.46
2023-04-29T14:15:43.951Z,38.44
2023-04-29T14:18:12.196Z,38.13
2023-04-29T14:20:40.140Z,38.77
2023-04-29T14:23:09.425Z,38.88
2023-04-29T14:25:37.358Z,40.01
2023-04-29T14:28:05.314Z,40.89
2023-04-29T14:30:33.351Z,39.47
2023-04-29T14:33:01.337Z,39.25
2023-04-29T14:35:29.497Z,39.82
2023-04-29T14:37:57.392Z,41.76
2023-04-29T14:40:26.844Z,39.83
2023-04-29T14:42:54.794Z,38.58
2023-04-29T14:45:22.725Z,37.45
2023-04-29T14:47:50.654Z,38.46
2023-04-29T14:50:18.894Z,38.35
2023-04-29T14:52:46.873Z,38.93
2023-04-29T14:55:15.186Z,39.86
2023-04-29T14:57:44.503Z,36.92
2023-04-29T15:00:13.565Z,37.66
2023-04-29T15:02:41.515Z,39.51
2023-04-29T15:05:09.942Z,38.58
2023-04-29T15:07:37.866Z,38.71
2023-04-29T15:10:09.423Z,39.28
2023-04-29T15:12:37.351Z,39.54
2023-04-29T15:15:08.158Z,40.17
2023-04-29T15:17:36.174Z,39.56
2023-04-29T15:20:04.273Z,40.31
2023-04-29T15:22:32.199Z,44.43
2023-04-29T15:25:01.045Z,42.07
2023-04-29T15:27:29.366Z,40.07
2023-04-29T15:29:57.889Z,40.42
2023-04-29T15:32:31.631Z,44.53
2023-04-29T15:34:59.751Z,41.12
2023-04-29T15:37:27.853Z,41.03
2023-04-29T15:39:56.477Z,39.70
2023-04-29T15:42:24.593Z,43.49
2023-04-29T15:44:52.574Z,43.43
2023-04-29T15:47:21.834Z,43.08
2023-04-29T15:49:52.521Z,46.10
2023-04-29T15:52:20.780Z,42.63
2023-04-29T15:54:48.675Z,45.00
2023-04-29T15:57:16.579Z,43.10
2023-04-29T15:59:44.702Z,43.06
2023-04-29T16:02:12.600Z,45.03
2023-04-29T16:04:40.514Z,49.36
2023-04-29T16:07:09.926Z,52.42
2023-04-29T16:09:37.888Z,55.01
2023-04-29T16:12:06.066Z,56.37
2023-04-29T16:14:33.982Z,56.60
2023-04-29T16:17:02.163Z,55.51
2023-04-29T16:19:30.209Z,56.46
2023-04-29T16:21:58.095Z,58.45
2023-04-29T16:24:27.747Z,57.27
2023-04-29T16:26:56.744Z,58.00
2023-04-29T16:29:24.633Z,58.52
2023-04-29T16:31:52.673Z,59.16
2023-04-29T16:34:20.917Z,61.11
2023-04-29T16:36:48.851Z,60.75
2023-04-29T16:39:16.989Z,61.37
2023-04-29T16:41:46.297Z,61.69
2023-04-29T16:44:14.587Z,62.04
2023-04-29T16:46:42.634Z,62.18
2023-04-29T16:49:10.756Z,61.56
2023-04-29T16:51:38.708Z,56.52
2023-04-29T16:54:08.080Z,59.96
2023-04-29T16:56:36.103Z,53.91
2023-04-29T16:59:05.385Z,57.22
2023-04-29T17:01:33.390Z,54.78
2023-04-29T17:04:01.668Z,59.98
2023-04-29T17:06:30.083Z,61.50
2023-04-29T17:08:58.162Z,62.80
2023-04-29T17:11:26.212Z,62.80
2023-04-29T17:13:54.132Z,61.86
2023-04-29T17:16:23.472Z,62.59
2023-04-29T17:18:51.432Z,62.55
2023-04-29T17:21:19.327Z,63.69
2023-04-29T17:23:47.204Z,64.18
2023-04-29T17:26:15.112Z,66.23
2023-04-29T17:28:43.053Z,67.07
2023-04-29T17:31:11.004Z,66.51
2023-04-29T17:33:43.646Z,65.97
2023-04-29T17:36:11.591Z,67.63
2023-04-29T17:38:39.552Z,69.92
2023-04-29T17:41:07.460Z,70.95
2023-04-29T17:43:35.720Z,70.82
2023-04-29T17:46:03.805Z,68.96
2023-04-29T17:48:32.467Z,69.79
2023-04-29T17:51:01.792Z,70.40
2023-04-29T17:53:29.699Z,72.49
2023-04-29T17:55:57.595Z,72.86
2023-04-29T17:58:27.470Z,73.95
2023-04-29T18:00:56.099Z,73.95
2023-04-29T18:03:27.325Z,74.50
2023-04-29T18:05:55.842Z,75.62
2023-04-29T18:08:25.266Z,76.41
2023-04-29T18:10:53.234Z,75.68
2023-04-29T18:13:21.154Z,76.73
2023-04-29T18:15:49.049Z,76.51
2023-04-29T18:18:17.141Z,76.76
2023-04-29T18:20:45.470Z,75.68
2023-04-29T18:23:14.122Z,74.00
2023-04-29T18:25:43.703Z,73.49
2023-04-29T18:28:24.031Z,73.43
2023-04-29T18:30:53.686Z,73.21
2023-04-29T18:33:23.286Z,72.46
2023-04-29T18:35:51.696Z,71.34
2023-04-29T18:38:19.572Z,72.31
2023-04-29T18:40:49.553Z,74.10
2023-04-29T18:43:18.366Z,73.72
2023-04-29T18:45:46.688Z,74.67
2023-04-29T18:48:15.128Z,73.75
2023-04-29T18:50:43.349Z,72.92
2023-04-29T18:53:11.877Z,72.01
2023-04-29T18:55:39.790Z,71.57
2023-04-29T18:58:09.394Z,71.30
2023-04-29T19:00:37.399Z,71.10
2023-04-29T19:03:06.302Z,72.25
2023-04-29T19:05:34.804Z,72.46
2023-04-29T19:08:02.754Z,72.71
2023-04-29T19:10:30.761Z,74.39
2023-04-29T19:12:58.676Z,74.34
2023-04-29T19:15:28.505Z,73.08
2023-04-29T19:17:56.666Z,73.81
2023-04-29T19:20:24.618Z,74.04
2023-04-29T19:22:52.522Z,74.00
2023-04-29T19:25:21.193Z,74.11
2023-04-29T19:27:51.130Z,75.05
2023-04-29T19:30:19.174Z,75.62
2023-04-29T19:32:48.900Z,75.75
2023-04-29T19:35:16.845Z,75.53
2023-04-29T19:37:44.734Z,75.88
2023-04-29T19:40:13.151Z,76.56
2023-04-29T19:42:41.289Z,76.70
2023-04-29T19:45:10.211Z,76.93
2023-04-29T19:47:38.145Z,76.85
2023-04-29T19:50:08.062Z,77.32
2023-04-29T19:52:35.941Z,77.69
2023-04-29T19:55:04.966Z,77.46
2023-04-29T19:57:33.285Z,77.50
2023-04-29T20:00:01.500Z,77.89
2023-04-29T20:02:29.541Z,77.64
2023-04-29T20:04:57.503Z,78.13
2023-04-29T20:07:26.793Z,77.91
2023-04-29T20:09:54.979Z,78.21
2023-04-29T20:12:23.154Z,79.01
2023-04-29T20:14:51.040Z,79.26
2023-04-29T20:17:18.993Z,79.88
2023-04-29T20:19:46.905Z,80.50
2023-04-29T20:22:14.841Z,80.58
2023-04-29T20:24:44.782Z,80.76
2023-04-29T20:27:12.959Z,81.34
2023-04-29T20:29:41.161Z,81.36
2023-04-29T20:32:09.187Z,82.58
2023-04-29T20:34:37.937Z,83.91
2023-04-29T20:37:07.009Z,84.12
2023-04-29T20:39:35.298Z,83.62
2023-04-29T20:42:05.391Z,82.55
2023-04-29T20:44:34.178Z,82.17
2023-04-29T20:47:02.075Z,81.78
2023-04-29T20:49:30.051Z,82.55
2023-04-29T20:51:58.341Z,83.11
2023-04-29T20:54:26.507Z,83.88
2023-04-29T20:56:54.404Z,84.85
2023-04-29T20:59:23.884Z,84.46
2023-04-29T21:01:51.940Z,84.24
2023-04-29T21:04:21.104Z,84.44
2023-04-29T21:06:50.736Z,84.06
2023-04-29T21:09:19.312Z,84.20
2023-04-29T21:11:47.347Z,85.07
2023-04-29T21:14:15.583Z,85.13
2023-04-29T21:16:44.935Z,86.03
2023-04-29T21:19:12.873Z,85.49
2023-04-29T21:21:40.781Z,85.05
2023-04-29T21:24:08.838Z,84.54
2023-04-29T21:26:36.819Z,83.88
2023-04-29T21:29:05.106Z,84.21
2023-04-29T21:31:33.097Z,84.71
2023-04-29T21:34:02.563Z,84.87
2023-04-29T21:36:32.092Z,84.19
2023-04-29T21:38:59.994Z,83.39
2023-04-29T21:41:29.653Z,83.84
2023-04-29T21:43:59.931Z,83.88
2023-04-29T21:46:28.690Z,86.27
2023-04-29T21:48:58.429Z,87.08
2023-04-29T21:51:28.844Z,84.95
2023-04-29T21:53:56.923Z,85.45
2023-04-29T21:56:24.939Z,84.98
2023-04-29T21:58:53.808Z,85.92
2023-04-29T22:01:39.859Z,85.37
2023-04-29T22:04:08.540Z,84.81
2023-04-29T22:06:38.002Z,84.15
2023-04-29T22:09:07.310Z,85.33
2023-04-29T22:11:35.370Z,85.04
2023-04-29T22:14:03.300Z,87.87
2023-04-29T22:16:31.257Z,87.26
2023-04-29T22:18:59.365Z,86.70
2023-04-29T22:21:27.976Z,87.15
2023-04-29T22:23:57.293Z,87.54
2023-04-29T22:26:25.549Z,86.10
2023-04-29T22:28:53.592Z,86.33
2023-04-29T22:31:21.553Z,85.92
2023-04-29T22:33:49.618Z,85.75
2023-04-29T22:36:17.537Z,84.77
2023-04-29T22:38:45.498Z,84.59
2023-04-29T22:41:14.881Z,86.94
2023-04-29T22:43:42.786Z,87.21
2023-04-29T22:46:10.792Z,88.30
2023-04-29T22:48:38.682Z,87.60
2023-04-29T22:51:06.915Z,87.72
2023-04-29T22:53:34.806Z,88.01
2023-04-29T22:56:03.238Z,87.87
2023-04-29T22:58:33.780Z,88.64
2023-04-29T23:01:02.200Z,88.18
2023-04-29T23:03:30.156Z,88.45
2023-04-29T23:05:59.539Z,89.75
2023-04-29T23:08:28.064Z,89.17
2023-04-29T23:10:56.073Z,89.46
2023-04-29T23:13:24.080Z,89.87
2023-04-29T23:15:56.796Z,91.37
2023-04-29T23:18:24.774Z,92.48
2023-04-29T23:20:53.082Z,92.25
2023-04-29T23:23:20.998Z,90.35
2023-04-29T23:25:48.914Z,88.76
2023-04-29T23:28:17.461Z,88.46
2023-04-29T23:30:47.375Z,88.93
2023-04-29T23:33:16.771Z,88.87
2023-04-29T23:35:49.595Z,88.39
2023-04-29T23:38:17.633Z,88.83
2023-04-29T23:40:46.396Z,89.00
2023-04-29T23:43:15.072Z,88.92
2023-04-29T23:45:45.136Z,88.75
2023-04-29T23:48:13.312Z,88.71
2023-04-29T23:50:42.644Z,88.50
2023-04-29T23:53:10.575Z,88.02
2023-04-29T23:55:38.555Z,86.74
2023-04-29T23:58:06.474Z,88.07
